Time;durP1;ratioP1;P1;durP2;ratioP2;P2;SDS_P1;SDS_P2;PMS_P1;PMS_P2;Temp;Humidity;BMP_temperature;BMP_pressure;BME280_temperature;BME280_humidity;BME280_pressure;Samples;Min_cycle;Max_cycle;Signal;HPM_P1;HPM_P2
2022/03/30 00:00:14;;;;;;;40.58;30.17;;;;;;;;;;510591;28;1395;-85
2022/03/30 00:00:29;;;;;;;41.50;30.10;;;;;;;;;;510260;28;2153;-85
2022/03/30 00:00:45;;;;;;;43.50;30.92;;;;;;;;;;508875;29;1647;-85
2022/03/30 00:01:01;;;;;;;42.78;30.73;;;;;;;;;;508702;29;1531;-85
2022/03/30 00:01:16;;;;;;;43.57;30.73;;;;;;;;;;509733;28;1430;-85
2022/03/30 00:01:32;;;;;;;45.05;31.30;;;;;;;;;;511159;28;1528;-85
2022/03/30 00:01:48;;;;;;;44.53;30.93;;;;;;;;;;511717;28;1791;-85
2022/03/30 00:02:04;;;;;;;44.28;31.20;;;;;;;;;;513351;28;1400;-85
2022/03/30 00:02:20;;;;;;;44.97;31.58;;;;;;;;;;513192;28;1763;-85
2022/03/30 00:02:36;;;;;;;45.20;31.03;;;;;;;;;;513324;28;1551;-85
2022/03/30 00:02:51;;;;;;;42.70;30.55;;;;;;;;;;515614;28;1750;-85
2022/03/30 00:03:07;;;;;;;41.45;30.88;;;;;;;;;;514947;28;1576;-85
2022/03/30 00:03:23;;;;;;;41.40;30.87;;;;;;;;;;513441;28;1472;-85
2022/03/30 00:03:38;;;;;;;40.83;30.48;;;;;;;;;;512517;28;1413;-85
2022/03/30 00:03:53;;;;;;;41.22;30.83;;;;;;;;;;513289;28;1440;-85
2022/03/30 00:04:09;;;;;;;42.97;31.40;;;;;;;;;;512456;28;1718;-85
2022/03/30 00:04:24;;;;;;;43.63;30.70;;;;;;;;;;511128;28;1500;-85
2022/03/30 00:04:39;;;;;;;42.92;30.42;;;;;;;;;;511329;28;1552;-85
2022/03/30 00:04:56;;;;;;;44.23;31.10;;;;;;;;;;511645;28;1613;-85
2022/03/30 00:05:11;;;;;;;42.38;30.77;;;;;;;;;;511978;28;1453;-85
2022/03/30 00:05:26;;;;;;;39.72;29.80;;;;;;;;;;512488;28;1424;-85
2022/03/30 00:05:42;;;;;;;40.70;29.67;;;;;;;;;;510296;28;1700;-85
2022/03/30 00:05:57;;;;;;;42.20;30.25;;;;;;;;;;508570;29;1670;-85
2022/03/30 00:06:13;;;;;;;42.03;29.80;;;;;;;;;;509525;29;1417;-85
2022/03/30 00:06:29;;;;;;;39.57;29.20;;;;;;;;;;509134;29;1472;-85
2022/03/30 00:06:44;;;;;;;40.08;29.15;;;;;;;;;;510777;28;1448;-85
2022/03/30 00:07:00;;;;;;;42.07;28.90;;;;;;;;;;507016;29;1686;-85
2022/03/30 00:07:15;;;;;;;40.00;28.90;;;;;;;;;;506357;29;1506;-85
2022/03/30 00:07:32;;;;;;;38.75;29.15;;;;;;;;;;508282;29;1664;-85
2022/03/30 00:07:51;;;;;;;41.38;29.48;;;;;;;;;;508687;29;1484;-85
2022/03/30 00:08:07;;;;;;;41.85;29.08;;;;;;;;;;509039;29;1815;-85
2022/03/30 00:08:23;;;;;;;40.90;29.52;;;;;;;;;;509638;29;1738;-85
2022/03/30 00:08:38;;;;;;;41.53;30.13;;;;;;;;;;511469;28;1435;-85
2022/03/30 00:08:54;;;;;;;40.07;29.83;;;;;;;;;;511446;28;1471;-85
2022/03/30 00:09:09;;;;;;;38.45;29.58;;;;;;;;;;508902;28;1451;-85
2022/03/30 00:09:25;;;;;;;38.70;29.17;;;;;;;;;;508633;28;1390;-85
2022/03/30 00:09:40;;;;;;;39.73;29.27;;;;;;;;;;509170;29;1649;-85
2022/03/30 00:09:56;;;;;;;39.50;29.83;;;;;;;;;;508678;29;1482;-85
2022/03/30 00:10:11;;;;;;;37.77;28.87;;;;;;;;;;508678;29;1521;-85
2022/03/30 00:10:27;;;;;;;38.03;28.47;;;;;;;;;;509962;28;1815;-85
2022/03/30 00:10:42;;;;;;;38.38;28.88;;;;;;;;;;508899;29;1493;-85
2022/03/30 00:10:58;;;;;;;36.80;28.13;;;;;;;;;;509157;29;1884;-85
2022/03/30 00:11:13;;;;;;;38.88;28.38;;;;;;;;;;508733;29;1520;-85
2022/03/30 00:11:29;;;;;;;40.33;29.23;;;;;;;;;;508568;29;1568;-86
2022/03/30 00:11:44;;;;;;;40.70;29.77;;;;;;;;;;506290;29;1419;-86
2022/03/30 00:12:00;;;;;;;41.63;29.53;;;;;;;;;;506915;29;1442;-86
2022/03/30 00:12:16;;;;;;;41.03;29.33;;;;;;;;;;507032;29;1461;-85
2022/03/30 00:12:33;;;;;;;40.58;29.27;;;;;;;;;;508007;29;1476;-86
2022/03/30 00:12:49;;;;;;;40.83;29.27;;;;;;;;;;509873;28;1426;-85
2022/03/30 00:13:05;;;;;;;41.67;30.00;;;;;;;;;;508594;29;1308;-86
2022/03/30 00:13:20;;;;;;;42.40;30.70;;;;;;;;;;508182;28;1531;-86
2022/03/30 00:13:36;;;;;;;41.27;30.03;;;;;;;;;;511371;28;1444;-86
2022/03/30 00:13:51;;;;;;;40.40;29.48;;;;;;;;;;509256;29;1466;-86
2022/03/30 00:14:07;;;;;;;39.63;29.37;;;;;;;;;;507278;29;1427;-86
2022/03/30 00:14:22;;;;;;;40.92;30.20;;;;;;;;;;506401;29;1573;-85
2022/03/30 00:14:38;;;;;;;41.57;31.00;;;;;;;;;;504967;29;1408;-86
2022/03/30 00:14:54;;;;;;;39.67;30.52;;;;;;;;;;505866;29;1514;-85
2022/03/30 00:15:10;;;;;;;41.15;30.42;;;;;;;;;;505150;29;1648;-85
2022/03/30 00:15:25;;;;;;;43.53;30.63;;;;;;;;;;505782;29;1641;-86
2022/03/30 00:15:41;;;;;;;43.47;30.50;;;;;;;;;;507453;29;1591;-86
2022/03/30 00:15:56;;;;;;;44.28;30.88;;;;;;;;;;508924;28;1510;-86
2022/03/30 00:16:12;;;;;;;41.93;30.10;;;;;;;;;;511172;28;1747;-86
2022/03/30 00:16:29;;;;;;;38.88;29.00;;;;;;;;;;508475;29;1447;-86
2022/03/30 00:16:45;;;;;;;39.45;29.30;;;;;;;;;;508850;28;1338;-86
2022/03/30 00:17:00;;;;;;;40.05;29.67;;;;;;;;;;508712;28;1433;-86
2022/03/30 00:17:15;;;;;;;39.07;29.33;;;;;;;;;;510636;28;1502;-86
2022/03/30 00:17:31;;;;;;;39.50;29.17;;;;;;;;;;508355;29;1643;-86
2022/03/30 00:17:46;;;;;;;40.28;29.23;;;;;;;;;;509062;28;1413;-85
2022/03/30 00:18:02;;;;;;;39.43;29.13;;;;;;;;;;508697;29;1747;-86
2022/03/30 00:18:19;;;;;;;40.30;29.17;;;;;;;;;;509384;28;1470;-86
2022/03/30 00:18:34;;;;;;;39.25;28.85;;;;;;;;;;509825;28;1496;-86
2022/03/30 00:18:50;;;;;;;37.87;28.83;;;;;;;;;;509075;28;1486;-86
2022/03/30 00:19:05;;;;;;;37.80;29.25;;;;;;;;;;510160;29;1558;-86
2022/03/30 00:19:20;;;;;;;38.90;29.43;;;;;;;;;;508967;29;1588;-86
2022/03/30 00:19:36;;;;;;;38.73;29.07;;;;;;;;;;506833;29;1424;-86
2022/03/30 00:19:51;;;;;;;37.60;28.73;;;;;;;;;;507633;29;1537;-86
2022/03/30 00:20:07;;;;;;;37.67;28.80;;;;;;;;;;510532;28;1652;-86
2022/03/30 00:20:23;;;;;;;38.17;29.15;;;;;;;;;;510610;28;1569;-86
2022/03/30 00:20:38;;;;;;;39.10;29.48;;;;;;;;;;510499;28;1461;-85
2022/03/30 00:20:53;;;;;;;38.63;29.27;;;;;;;;;;512978;28;1615;-86
2022/03/30 00:21:09;;;;;;;37.73;29.00;;;;;;;;;;511812;28;1527;-86
2022/03/30 00:21:24;;;;;;;38.33;29.30;;;;;;;;;;510891;28;1523;-86
2022/03/30 00:21:40;;;;;;;36.73;28.57;;;;;;;;;;509401;29;1460;-85
2022/03/30 00:21:55;;;;;;;35.38;28.20;;;;;;;;;;507052;29;1618;-85
2022/03/30 00:22:11;;;;;;;37.13;28.65;;;;;;;;;;505604;29;1347;-85
2022/03/30 00:22:26;;;;;;;37.50;28.77;;;;;;;;;;505083;29;1614;-86
2022/03/30 00:22:42;;;;;;;39.22;29.02;;;;;;;;;;505380;29;1434;-86
2022/03/30 00:22:58;;;;;;;41.27;29.00;;;;;;;;;;505723;29;1802;-86
2022/03/30 00:23:13;;;;;;;40.78;29.15;;;;;;;;;;510415;28;1441;-86
2022/03/30 00:23:29;;;;;;;40.00;29.50;;;;;;;;;;510339;28;1309;-86
2022/03/30 00:23:44;;;;;;;39.50;29.57;;;;;;;;;;510106;28;1521;-86
2022/03/30 00:23:59;;;;;;;38.60;29.10;;;;;;;;;;511777;28;1654;-85
2022/03/30 00:24:15;;;;;;;38.03;28.45;;;;;;;;;;512989;28;1483;-86
2022/03/30 00:24:30;;;;;;;38.53;28.70;;;;;;;;;;514737;28;1625;-85
2022/03/30 00:24:46;;;;;;;38.22;28.67;;;;;;;;;;514491;28;1516;-85
2022/03/30 00:25:01;;;;;;;38.37;28.90;;;;;;;;;;513274;28;1568;-85
2022/03/30 00:25:17;;;;;;;38.20;29.08;;;;;;;;;;512657;28;1508;-85
2022/03/30 00:25:32;;;;;;;36.77;28.53;;;;;;;;;;512921;28;1647;-85
2022/03/30 00:25:48;;;;;;;34.78;27.88;;;;;;;;;;513315;28;1538;-85
2022/03/30 00:26:03;;;;;;;36.63;28.80;;;;;;;;;;510968;28;1501;-86
2022/03/30 00:26:19;;;;;;;38.23;29.37;;;;;;;;;;511271;28;1417;-86
2022/03/30 00:26:34;;;;;;;37.55;28.63;;;;;;;;;;513258;28;1420;-86
2022/03/30 00:26:50;;;;;;;36.38;28.33;;;;;;;;;;513143;28;1575;-85
2022/03/30 00:27:06;;;;;;;37.55;28.73;;;;;;;;;;513099;28;1422;-86
2022/03/30 00:27:21;;;;;;;38.30;29.00;;;;;;;;;;512251;28;1626;-86
2022/03/30 00:27:38;;;;;;;37.50;28.25;;;;;;;;;;513138;28;1284;-86
2022/03/30 00:27:54;;;;;;;37.50;28.15;;;;;;;;;;510819;28;1756;-86
2022/03/30 00:28:09;;;;;;;38.07;28.97;;;;;;;;;;508452;29;1542;-86
2022/03/30 00:28:27;;;;;;;38.75;29.80;;;;;;;;;;509393;29;1720;-86
2022/03/30 00:28:42;;;;;;;39.70;29.73;;;;;;;;;;511038;28;1504;-86
2022/03/30 00:28:58;;;;;;;38.97;28.70;;;;;;;;;;510953;28;1440;-85
2022/03/30 00:29:13;;;;;;;37.93;28.67;;;;;;;;;;509047;29;1555;-86
2022/03/30 00:29:29;;;;;;;37.83;28.80;;;;;;;;;;509466;29;1525;-85
2022/03/30 00:29:45;;;;;;;37.67;28.43;;;;;;;;;;509351;28;1662;-86
2022/03/30 00:30:01;;;;;;;37.33;28.58;;;;;;;;;;509624;28;1363;-86
2022/03/30 00:30:19;;;;;;;38.92;29.20;;;;;;;;;;511359;28;1759;-85
2022/03/30 00:30:34;;;;;;;38.40;28.73;;;;;;;;;;510782;28;1442;-86
2022/03/30 00:30:50;;;;;;;36.83;28.58;;;;;;;;;;511407;28;1482;-86
2022/03/30 00:31:05;;;;;;;36.90;28.93;;;;;;;;;;509074;28;1910;-86
2022/03/30 00:31:21;;;;;;;37.05;28.60;;;;;;;;;;511383;28;1579;-86
2022/03/30 00:31:36;;;;;;;37.97;28.38;;;;;;;;;;509793;29;1845;-85
2022/03/30 00:31:52;;;;;;;38.23;28.73;;;;;;;;;;507372;29;2278;-85
2022/03/30 00:32:07;;;;;;;37.40;28.63;;;;;;;;;;506950;29;1534;-85
2022/03/30 00:32:23;;;;;;;38.28;28.92;;;;;;;;;;506882;29;1414;-85
2022/03/30 00:32:38;;;;;;;37.77;28.50;;;;;;;;;;508127;29;1481;-86
2022/03/30 00:32:53;;;;;;;38.45;28.75;;;;;;;;;;508678;28;1686;-86
2022/03/30 00:33:09;;;;;;;39.47;29.30;;;;;;;;;;510274;28;2677;-86
2022/03/30 00:33:25;;;;;;;41.38;29.65;;;;;;;;;;508697;28;1643;-86
2022/03/30 00:33:41;;;;;;;42.47;30.33;;;;;;;;;;510221;28;1508;-86
2022/03/30 00:33:56;;;;;;;39.80;29.60;;;;;;;;;;508476;29;1497;-86
2022/03/30 00:34:11;;;;;;;38.90;29.15;;;;;;;;;;508621;29;1512;-86
2022/03/30 00:34:27;;;;;;;39.97;29.77;;;;;;;;;;507177;29;1537;-86
2022/03/30 00:34:43;;;;;;;40.73;29.50;;;;;;;;;;508165;29;1599;-86
2022/03/30 00:34:58;;;;;;;38.70;29.15;;;;;;;;;;507209;29;1443;-86
2022/03/30 00:35:15;;;;;;;36.13;28.80;;;;;;;;;;506773;29;1520;-86
2022/03/30 00:35:31;;;;;;;34.47;27.83;;;;;;;;;;504625;29;1541;-85
2022/03/30 00:35:46;;;;;;;35.00;27.52;;;;;;;;;;505701;29;2417;-86
2022/03/30 00:36:02;;;;;;;35.90;27.87;;;;;;;;;;506600;29;1446;-85
2022/03/30 00:36:18;;;;;;;36.28;27.98;;;;;;;;;;508150;29;1880;-85
2022/03/30 00:36:40;;;;;;;37.53;28.02;;;;;;;;;;509780;28;1532;-86
2022/03/30 00:36:55;;;;;;;35.75;27.30;;;;;;;;;;510944;28;1462;-86
2022/03/30 00:37:10;;;;;;;33.90;26.70;;;;;;;;;;510404;28;1509;-86
2022/03/30 00:37:26;;;;;;;34.37;26.87;;;;;;;;;;511633;28;1460;-86
2022/03/30 00:37:42;;;;;;;34.50;27.25;;;;;;;;;;510947;28;1635;-86
2022/03/30 00:37:58;;;;;;;35.83;27.63;;;;;;;;;;511088;28;1485;-86
2022/03/30 00:38:13;;;;;;;37.00;27.77;;;;;;;;;;510346;28;1559;-86
2022/03/30 00:38:29;;;;;;;36.88;27.83;;;;;;;;;;508389;29;1462;-86
2022/03/30 00:38:44;;;;;;;35.15;27.52;;;;;;;;;;506883;29;1536;-86
2022/03/30 00:38:59;;;;;;;34.63;27.53;;;;;;;;;;507295;29;1590;-85
2022/03/30 00:39:16;;;;;;;35.40;27.50;;;;;;;;;;507154;29;1730;-86
2022/03/30 00:39:32;;;;;;;36.03;27.40;;;;;;;;;;506391;29;1441;-86
2022/03/30 00:39:48;;;;;;;36.50;27.20;;;;;;;;;;507791;29;1513;-86
2022/03/30 00:40:05;;;;;;;36.08;27.08;;;;;;;;;;508153;29;1533;-86
2022/03/30 00:40:20;;;;;;;34.75;27.55;;;;;;;;;;509065;28;1497;-86
2022/03/30 00:40:36;;;;;;;35.27;27.97;;;;;;;;;;509978;28;1707;-86
2022/03/30 00:40:51;;;;;;;37.03;27.88;;;;;;;;;;509326;29;1569;-86
2022/03/30 00:41:07;;;;;;;37.03;27.80;;;;;;;;;;508303;29;1595;-86
2022/03/30 00:41:22;;;;;;;36.67;28.15;;;;;;;;;;509185;28;1600;-86
2022/03/30 00:41:38;;;;;;;36.80;28.13;;;;;;;;;;509748;28;1547;-85
2022/03/30 00:41:55;;;;;;;35.90;27.70;;;;;;;;;;510842;28;1354;-86
2022/03/30 00:42:17;;;;;;;36.15;28.33;;;;;;;;;;510651;28;1393;-86
2022/03/30 00:42:33;;;;;;;35.95;27.83;;;;;;;;;;512009;28;1511;-86
2022/03/30 00:42:48;;;;;;;36.72;27.55;;;;;;;;;;511509;28;1404;-86
2022/03/30 00:43:04;;;;;;;37.80;27.70;;;;;;;;;;508827;29;1429;-86
2022/03/30 00:43:20;;;;;;;35.10;27.05;;;;;;;;;;509207;29;1560;-86
2022/03/30 00:43:35;;;;;;;36.42;27.58;;;;;;;;;;510791;28;1553;-86
2022/03/30 00:43:51;;;;;;;37.20;28.03;;;;;;;;;;512094;28;1575;-86
2022/03/30 00:44:10;;;;;;;37.17;28.05;;;;;;;;;;510575;28;1485;-86
2022/03/30 00:44:26;;;;;;;37.03;27.83;;;;;;;;;;511205;28;1463;-86
2022/03/30 00:44:41;;;;;;;35.30;27.80;;;;;;;;;;509409;28;1511;-86
2022/03/30 00:44:57;;;;;;;35.63;28.48;;;;;;;;;;511231;28;1510;-86
2022/03/30 00:45:21;;;;;;;36.77;28.87;;;;;;;;;;511022;28;1369;-86
2022/03/30 00:45:36;;;;;;;35.35;27.63;;;;;;;;;;510387;28;1421;-86
2022/03/30 00:45:51;;;;;;;36.77;27.73;;;;;;;;;;508660;29;1469;-86
2022/03/30 00:46:12;;;;;;;37.15;28.23;;;;;;;;;;509053;29;1407;-86
2022/03/30 00:46:27;;;;;;;36.28;28.42;;;;;;;;;;508833;29;1488;-86
2022/03/30 00:46:43;;;;;;;36.47;28.63;;;;;;;;;;511395;28;1721;-86
2022/03/30 00:46:58;;;;;;;38.58;28.63;;;;;;;;;;511354;28;1505;-85
2022/03/30 00:47:24;;;;;;;37.70;28.20;;;;;;;;;;510660;28;1564;-86
2022/03/30 00:47:42;;;;;;;38.03;29.05;;;;;;;;;;511657;28;1434;-86
2022/03/30 00:47:57;;;;;;;39.92;29.50;;;;;;;;;;510720;28;1546;-86
2022/03/30 00:48:13;;;;;;;40.00;29.60;;;;;;;;;;510190;28;1575;-86
2022/03/30 00:48:28;;;;;;;40.35;29.50;;;;;;;;;;512506;28;1654;-86
2022/03/30 00:48:43;;;;;;;39.80;29.53;;;;;;;;;;513378;28;1453;-86
2022/03/30 00:49:02;;;;;;;38.25;29.42;;;;;;;;;;511892;28;1885;-86
2022/03/30 00:49:17;;;;;;;38.15;28.80;;;;;;;;;;514636;28;1480;-86
2022/03/30 00:49:33;;;;;;;38.95;28.95;;;;;;;;;;513100;28;1405;-86
2022/03/30 00:49:48;;;;;;;40.40;29.27;;;;;;;;;;511341;28;1561;-86
2022/03/30 00:50:06;;;;;;;40.47;29.35;;;;;;;;;;513135;28;1417;-86
2022/03/30 00:50:23;;;;;;;38.63;29.50;;;;;;;;;;510858;28;1718;-86
2022/03/30 00:50:38;;;;;;;37.22;29.25;;;;;;;;;;509320;29;1501;-86
2022/03/30 00:50:54;;;;;;;36.95;28.88;;;;;;;;;;509148;29;1383;-86
2022/03/30 00:51:10;;;;;;;37.83;29.07;;;;;;;;;;509050;29;1914;-86
2022/03/30 00:51:25;;;;;;;38.67;28.92;;;;;;;;;;506777;29;1401;-86
2022/03/30 00:51:41;;;;;;;38.17;28.77;;;;;;;;;;507298;29;1494;-86
2022/03/30 00:51:56;;;;;;;37.17;28.73;;;;;;;;;;506985;29;1405;-86
2022/03/30 00:52:12;;;;;;;38.78;29.02;;;;;;;;;;509137;29;1717;-86
2022/03/30 00:52:28;;;;;;;38.50;29.00;;;;;;;;;;506324;29;1666;-86
2022/03/30 00:52:45;;;;;;;37.17;28.60;;;;;;;;;;509379;29;1427;-86
2022/03/30 00:53:00;;;;;;;37.72;28.73;;;;;;;;;;509590;29;1922;-86
2022/03/30 00:53:16;;;;;;;38.75;28.88;;;;;;;;;;508942;29;1426;-87
2022/03/30 00:53:31;;;;;;;37.97;29.10;;;;;;;;;;511113;28;1489;-86
2022/03/30 00:53:46;;;;;;;38.85;29.38;;;;;;;;;;510600;28;1450;-86
2022/03/30 00:54:03;;;;;;;38.97;29.13;;;;;;;;;;508877;28;1491;-86
2022/03/30 00:54:18;;;;;;;37.95;28.70;;;;;;;;;;509339;29;1735;-86
2022/03/30 00:54:34;;;;;;;38.80;29.20;;;;;;;;;;509240;29;1434;-86
2022/03/30 00:54:51;;;;;;;39.15;29.75;;;;;;;;;;508204;29;1718;-86
2022/03/30 00:55:07;;;;;;;38.38;30.05;;;;;;;;;;508498;29;1449;-86
2022/03/30 00:55:24;;;;;;;39.05;29.70;;;;;;;;;;509016;29;1796;-86
2022/03/30 00:55:39;;;;;;;35.97;28.05;;;;;;;;;;509200;28;1474;-86
2022/03/30 00:55:55;;;;;;;35.77;27.73;;;;;;;;;;509780;29;1576;-86
2022/03/30 00:56:11;;;;;;;36.43;27.43;;;;;;;;;;507022;29;1584;-86
2022/03/30 00:56:29;;;;;;;35.78;27.40;;;;;;;;;;506248;29;1546;-86
2022/03/30 00:56:45;;;;;;;35.50;27.55;;;;;;;;;;505309;29;1491;-86
2022/03/30 00:57:01;;;;;;;34.93;27.30;;;;;;;;;;504233;29;1641;-86
2022/03/30 00:57:19;;;;;;;35.45;26.95;;;;;;;;;;506804;29;1501;-86
2022/03/30 00:57:36;;;;;;;33.70;26.63;;;;;;;;;;506810;29;1457;-86
2022/03/30 00:57:53;;;;;;;34.05;27.13;;;;;;;;;;507293;29;1492;-86
2022/03/30 00:58:09;;;;;;;33.58;26.70;;;;;;;;;;508441;29;1387;-85
2022/03/30 00:58:26;;;;;;;32.37;26.27;;;;;;;;;;510628;28;1413;-86
2022/03/30 00:58:41;;;;;;;34.85;26.98;;;;;;;;;;512258;28;1448;-87
2022/03/30 00:58:58;;;;;;;36.95;27.55;;;;;;;;;;514084;28;1448;-86
2022/03/30 00:59:14;;;;;;;36.45;27.35;;;;;;;;;;513814;28;1475;-86
2022/03/30 00:59:30;;;;;;;37.57;27.83;;;;;;;;;;512413;28;1512;-86
2022/03/30 00:59:45;;;;;;;38.20;28.23;;;;;;;;;;510268;28;1652;-86
2022/03/30 01:00:01;;;;;;;37.38;28.15;;;;;;;;;;510200;28;1507;-86
2022/03/30 01:00:16;;;;;;;37.10;28.10;;;;;;;;;;508191;29;1546;-86
2022/03/30 01:00:32;;;;;;;37.63;28.60;;;;;;;;;;506640;29;1457;-86
2022/03/30 01:00:48;;;;;;;38.20;29.23;;;;;;;;;;506413;29;1637;-86
2022/03/30 01:01:03;;;;;;;39.13;29.02;;;;;;;;;;504679;29;1635;-86
2022/03/30 01:01:20;;;;;;;39.00;28.23;;;;;;;;;;505037;29;1499;-86
2022/03/30 01:01:36;;;;;;;37.97;28.08;;;;;;;;;;505799;29;1380;-86
2022/03/30 01:01:51;;;;;;;37.57;27.93;;;;;;;;;;507250;29;1542;-86
2022/03/30 01:02:07;;;;;;;36.80;28.08;;;;;;;;;;506993;29;1456;-86
2022/03/30 01:02:25;;;;;;;36.78;28.77;;;;;;;;;;507161;29;1733;-86
2022/03/30 01:02:45;;;;;;;37.67;28.45;;;;;;;;;;509583;28;1493;-86
2022/03/30 01:03:00;;;;;;;39.83;28.87;;;;;;;;;;512114;28;1649;-86
2022/03/30 01:03:16;;;;;;;38.83;28.67;;;;;;;;;;512849;28;1477;-86
2022/03/30 01:03:31;;;;;;;37.45;27.70;;;;;;;;;;513130;28;1476;-86
2022/03/30 01:03:47;;;;;;;36.33;27.47;;;;;;;;;;511854;28;1514;-86
2022/03/30 01:04:05;;;;;;;33.70;27.05;;;;;;;;;;513135;28;1639;-86
2022/03/30 01:04:21;;;;;;;32.30;26.70;;;;;;;;;;509390;29;1486;-86
2022/03/30 01:04:36;;;;;;;34.07;27.03;;;;;;;;;;508288;29;1562;-86
2022/03/30 01:04:52;;;;;;;34.70;26.85;;;;;;;;;;508432;29;1513;-86
2022/03/30 01:05:07;;;;;;;34.70;27.17;;;;;;;;;;510827;28;1604;-86
2022/03/30 01:05:23;;;;;;;35.50;27.57;;;;;;;;;;509960;28;1444;-85
2022/03/30 01:05:38;;;;;;;36.08;27.45;;;;;;;;;;508625;29;1426;-86
2022/03/30 01:05:54;;;;;;;35.73;27.30;;;;;;;;;;508976;29;1320;-86
2022/03/30 01:06:09;;;;;;;37.05;27.35;;;;;;;;;;504477;29;1641;-85
2022/03/30 01:06:25;;;;;;;38.43;27.77;;;;;;;;;;504053;29;1891;-86
2022/03/30 01:06:40;;;;;;;37.65;27.33;;;;;;;;;;504982;29;1581;-86
2022/03/30 01:06:55;;;;;;;36.27;27.30;;;;;;;;;;508612;29;1717;-86
2022/03/30 01:07:12;;;;;;;34.80;26.80;;;;;;;;;;510530;28;1491;-86
2022/03/30 01:07:27;;;;;;;34.72;26.80;;;;;;;;;;508368;29;1637;-86
2022/03/30 01:07:43;;;;;;;33.47;26.60;;;;;;;;;;508587;29;1502;-86
2022/03/30 01:07:59;;;;;;;33.05;26.27;;;;;;;;;;509095;29;1391;-86
2022/03/30 01:08:14;;;;;;;33.97;26.50;;;;;;;;;;506833;29;1562;-86
2022/03/30 01:08:30;;;;;;;33.30;25.87;;;;;;;;;;507747;29;1426;-85
2022/03/30 01:08:48;;;;;;;32.75;25.67;;;;;;;;;;508971;29;1545;-86
2022/03/30 01:09:03;;;;;;;33.95;26.30;;;;;;;;;;509749;29;1414;-86
2022/03/30 01:09:20;;;;;;;34.10;26.53;;;;;;;;;;510911;28;1524;-86
2022/03/30 01:09:35;;;;;;;33.75;26.25;;;;;;;;;;511014;28;1636;-86
2022/03/30 01:09:51;;;;;;;35.33;26.00;;;;;;;;;;509134;29;1439;-86
2022/03/30 01:10:10;;;;;;;36.58;26.05;;;;;;;;;;509374;29;1566;-86
2022/03/30 01:10:26;;;;;;;35.08;26.15;;;;;;;;;;510986;28;1802;-86
2022/03/30 01:10:42;;;;;;;36.45;26.13;;;;;;;;;;512570;28;1659;-86
2022/03/30 01:11:00;;;;;;;35.75;26.45;;;;;;;;;;513099;28;1385;-86
2022/03/30 01:11:16;;;;;;;33.22;26.25;;;;;;;;;;512821;28;1958;-86
2022/03/30 01:11:31;;;;;;;32.75;25.90;;;;;;;;;;512828;28;1451;-86
2022/03/30 01:11:51;;;;;;;31.47;25.70;;;;;;;;;;512624;28;1502;-86
2022/03/30 01:12:08;;;;;;;32.45;25.98;;;;;;;;;;512194;28;1846;-86
2022/03/30 01:12:25;;;;;;;35.13;27.08;;;;;;;;;;509633;28;1428;-86
2022/03/30 01:12:40;;;;;;;37.47;27.60;;;;;;;;;;510388;28;1686;-86
2022/03/30 01:12:56;;;;;;;35.72;26.77;;;;;;;;;;510927;28;1532;-86
2022/03/30 01:13:12;;;;;;;35.17;26.48;;;;;;;;;;508236;29;1414;-86
2022/03/30 01:13:28;;;;;;;34.27;26.43;;;;;;;;;;504986;29;1410;-86
2022/03/30 01:13:44;;;;;;;32.80;25.98;;;;;;;;;;504305;29;1784;-86
2022/03/30 01:13:59;;;;;;;33.83;26.13;;;;;;;;;;507372;29;1421;-86
2022/03/30 01:14:15;;;;;;;34.20;26.87;;;;;;;;;;507393;29;1462;-86
2022/03/30 01:14:31;;;;;;;35.00;27.00;;;;;;;;;;506900;29;1532;-86
2022/03/30 01:14:49;;;;;;;34.80;26.60;;;;;;;;;;507124;29;1513;-86
2022/03/30 01:15:07;;;;;;;33.85;26.50;;;;;;;;;;507730;29;1497;-86
2022/03/30 01:15:23;;;;;;;32.72;25.77;;;;;;;;;;507735;29;1469;-86
2022/03/30 01:15:38;;;;;;;31.77;25.15;;;;;;;;;;509211;29;1680;-86
2022/03/30 01:15:54;;;;;;;33.78;25.48;;;;;;;;;;509182;28;1718;-86
2022/03/30 01:16:09;;;;;;;34.03;25.27;;;;;;;;;;512288;28;1828;-86
2022/03/30 01:16:25;;;;;;;32.28;24.88;;;;;;;;;;512632;28;1531;-86
2022/03/30 01:16:41;;;;;;;31.87;25.07;;;;;;;;;;512951;28;1607;-85
2022/03/30 01:16:56;;;;;;;30.88;25.02;;;;;;;;;;514814;28;1471;-86
2022/03/30 01:17:11;;;;;;;31.30;25.37;;;;;;;;;;512775;28;1507;-86
2022/03/30 01:17:27;;;;;;;32.08;25.35;;;;;;;;;;511948;28;1582;-86
2022/03/30 01:17:42;;;;;;;32.33;25.47;;;;;;;;;;512221;28;1482;-86
2022/03/30 01:17:58;;;;;;;34.25;25.95;;;;;;;;;;512158;28;1539;-86
2022/03/30 01:18:13;;;;;;;35.93;26.03;;;;;;;;;;509600;28;1453;-86
2022/03/30 01:18:29;;;;;;;34.35;25.58;;;;;;;;;;510817;28;1730;-86
2022/03/30 01:18:44;;;;;;;32.67;25.10;;;;;;;;;;510784;28;1484;-86
2022/03/30 01:19:07;;;;;;;32.63;24.97;;;;;;;;;;509498;29;2044;-86
2022/03/30 01:19:28;;;;;;;31.00;24.67;;;;;;;;;;509062;29;1497;-86
2022/03/30 01:19:43;;;;;;;29.70;24.17;;;;;;;;;;508983;29;1557;-86
2022/03/30 01:19:59;;;;;;;31.17;25.17;;;;;;;;;;511014;28;1417;-85
2022/03/30 01:20:21;;;;;;;31.90;25.45;;;;;;;;;;510893;28;1552;-86
2022/03/30 01:20:37;;;;;;;33.03;25.13;;;;;;;;;;508904;29;1428;-86
2022/03/30 01:20:52;;;;;;;32.25;24.83;;;;;;;;;;510074;28;1545;-86
2022/03/30 01:21:08;;;;;;;32.37;24.93;;;;;;;;;;509272;29;1529;-86
2022/03/30 01:21:23;;;;;;;31.83;24.98;;;;;;;;;;508371;29;1450;-86
2022/03/30 01:21:40;;;;;;;31.73;24.93;;;;;;;;;;508893;29;1441;-86
2022/03/30 01:21:56;;;;;;;32.53;25.23;;;;;;;;;;509058;29;1536;-86
2022/03/30 01:22:11;;;;;;;31.60;25.27;;;;;;;;;;508953;29;1437;-86
2022/03/30 01:22:26;;;;;;;31.25;24.85;;;;;;;;;;509646;28;1560;-86
2022/03/30 01:22:42;;;;;;;32.33;24.87;;;;;;;;;;511506;28;1656;-86
2022/03/30 01:22:57;;;;;;;34.53;25.52;;;;;;;;;;513169;28;1518;-86
2022/03/30 01:23:13;;;;;;;35.80;26.73;;;;;;;;;;513658;28;1392;-86
2022/03/30 01:23:28;;;;;;;33.70;26.73;;;;;;;;;;510751;28;1587;-86
2022/03/30 01:23:43;;;;;;;33.42;26.48;;;;;;;;;;509509;29;1490;-86
2022/03/30 01:23:59;;;;;;;34.87;26.60;;;;;;;;;;506692;29;1436;-86
2022/03/30 01:24:14;;;;;;;34.35;26.42;;;;;;;;;;506918;29;1544;-85
2022/03/30 01:24:30;;;;;;;36.00;27.03;;;;;;;;;;506896;29;1405;-86
2022/03/30 01:24:45;;;;;;;37.47;27.57;;;;;;;;;;509601;28;1441;-86
2022/03/30 01:25:01;;;;;;;36.42;27.35;;;;;;;;;;508929;29;1537;-86
2022/03/30 01:25:18;;;;;;;36.60;27.10;;;;;;;;;;508711;29;1381;-86
2022/03/30 01:25:33;;;;;;;36.85;27.75;;;;;;;;;;508254;28;1538;-86
2022/03/30 01:25:48;;;;;;;36.17;28.70;;;;;;;;;;508639;29;1470;-86
2022/03/30 01:26:05;;;;;;;38.30;29.30;;;;;;;;;;509205;29;1618;-86
2022/03/30 01:26:20;;;;;;;37.85;28.83;;;;;;;;;;506931;29;1551;-86
2022/03/30 01:26:37;;;;;;;37.97;28.47;;;;;;;;;;507554;29;1538;-86
2022/03/30 01:26:53;;;;;;;38.15;27.98;;;;;;;;;;508178;29;1536;-86
2022/03/30 01:27:08;;;;;;;38.45;28.40;;;;;;;;;;508070;29;1419;-86
2022/03/30 01:27:24;;;;;;;38.77;28.60;;;;;;;;;;506868;29;1505;-86
2022/03/30 01:27:39;;;;;;;37.85;28.88;;;;;;;;;;506934;29;1391;-86
2022/03/30 01:27:55;;;;;;;38.30;29.33;;;;;;;;;;507290;29;1545;-86
2022/03/30 01:28:11;;;;;;;38.25;28.58;;;;;;;;;;507051;29;1497;-86
2022/03/30 01:28:28;;;;;;;38.92;28.90;;;;;;;;;;507230;29;1681;-86
2022/03/30 01:28:44;;;;;;;40.30;29.30;;;;;;;;;;507646;29;1524;-86
2022/03/30 01:28:59;;;;;;;40.13;29.30;;;;;;;;;;509811;28;1461;-86
2022/03/30 01:32:41;;;;;;;41.85;29.08;;;;;;;;;;515128;28;1486;-85
2022/03/30 01:32:58;;;;;;;41.35;28.77;;;;;;;;;;514379;28;1871;-85
2022/03/30 01:33:13;;;;;;;40.17;29.20;;;;;;;;;;516632;28;1574;-86
2022/03/30 01:33:32;;;;;;;38.85;28.67;;;;;;;;;;515292;28;1568;-85
2022/03/30 01:33:48;;;;;;;37.08;27.73;;;;;;;;;;512477;28;1464;-85
2022/03/30 01:34:03;;;;;;;41.55;28.73;;;;;;;;;;510705;28;1619;-86
2022/03/30 01:34:20;;;;;;;42.63;28.90;;;;;;;;;;508741;29;1458;-86
2022/03/30 01:34:35;;;;;;;40.97;28.52;;;;;;;;;;507332;29;1457;-85
2022/03/30 01:34:51;;;;;;;40.73;29.37;;;;;;;;;;504570;29;1483;-85
2022/03/30 01:35:10;;;;;;;41.00;30.13;;;;;;;;;;506844;29;1412;-85
2022/03/30 01:35:26;;;;;;;40.70;29.83;;;;;;;;;;508736;29;1782;-85
2022/03/30 01:35:41;;;;;;;39.80;29.48;;;;;;;;;;506144;29;2891;-86
2022/03/30 01:35:57;;;;;;;41.28;30.05;;;;;;;;;;508264;29;1657;-86
2022/03/30 01:36:15;;;;;;;40.37;30.30;;;;;;;;;;508921;29;1518;-85
2022/03/30 01:36:31;;;;;;;41.30;30.25;;;;;;;;;;508661;29;1494;-86
2022/03/30 01:36:46;;;;;;;43.50;30.50;;;;;;;;;;507004;29;1446;-86
2022/03/30 01:37:03;;;;;;;44.30;30.33;;;;;;;;;;506741;29;1752;-85
2022/03/30 01:37:18;;;;;;;41.30;30.02;;;;;;;;;;507268;29;1426;-85
2022/03/30 01:37:34;;;;;;;40.90;30.38;;;;;;;;;;507389;29;1410;-86
2022/03/30 01:37:49;;;;;;;42.53;30.47;;;;;;;;;;508901;29;1540;-86
2022/03/30 01:38:05;;;;;;;43.50;30.73;;;;;;;;;;511200;28;1421;-86
2022/03/30 01:38:20;;;;;;;42.77;30.67;;;;;;;;;;508319;29;1488;-86
2022/03/30 01:38:36;;;;;;;42.13;30.73;;;;;;;;;;509440;29;1427;-86
2022/03/30 01:38:51;;;;;;;43.53;31.05;;;;;;;;;;508930;29;1550;-85
2022/03/30 01:39:06;;;;;;;43.92;31.02;;;;;;;;;;507948;29;1539;-86
2022/03/30 01:39:22;;;;;;;42.90;31.00;;;;;;;;;;508732;29;1433;-86